createdAt,value
2022-11-09T00:04:31.517Z,11.68
2022-11-09T00:09:35.703Z,11.69
2022-11-09T00:14:38.791Z,11.73
2022-11-09T00:19:41.615Z,11.76
2022-11-09T00:24:45.690Z,11.85
2022-11-09T00:29:48.491Z,11.81
2022-11-09T00:34:54.126Z,11.79
2022-11-09T00:39:59.478Z,11.76
2022-11-09T00:45:03.114Z,11.90
2022-11-09T00:50:06.718Z,11.86
2022-11-09T00:55:11.084Z,11.82
2022-11-09T01:00:16.582Z,11.79
2022-11-09T01:05:20.046Z,11.82
2022-11-09T01:10:26.316Z,11.82
2022-11-09T01:15:30.312Z,11.82
2022-11-09T01:20:33.061Z,11.84
2022-11-09T01:25:38.208Z,11.83
2022-11-09T01:30:42.926Z,11.84
2022-11-09T01:35:45.675Z,11.82
2022-11-09T01:40:49.870Z,11.79
2022-11-09T01:45:56.406Z,11.75
2022-11-09T01:51:04.135Z,11.75
2022-11-09T01:56:14.647Z,11.73
2022-11-09T02:01:18.774Z,11.75
2022-11-09T02:06:26.149Z,11.74
2022-11-09T02:11:31.254Z,11.75
2022-11-09T02:16:35.324Z,11.74
2022-11-09T02:21:39.490Z,11.76
2022-11-09T02:26:46.670Z,11.72
2022-11-09T02:31:54.490Z,11.71
2022-11-09T02:36:58.884Z,11.71
2022-11-09T02:42:09.843Z,11.69
2022-11-09T02:47:13.502Z,11.72
2022-11-09T02:52:18.167Z,11.74
2022-11-09T02:57:21.879Z,11.77
2022-11-09T03:02:26.389Z,11.82
2022-11-09T03:07:30.580Z,11.76
2022-11-09T03:12:33.758Z,11.73
2022-11-09T03:17:42.287Z,11.67
2022-11-09T03:22:46.807Z,11.63
2022-11-09T03:27:49.779Z,11.61
2022-11-09T03:32:59.327Z,11.64
2022-11-09T03:38:03.624Z,11.60
2022-11-09T03:43:06.691Z,11.63
2022-11-09T03:48:10.050Z,11.61
2022-11-09T03:53:14.620Z,11.59
2022-11-09T03:58:17.426Z,11.57
2022-11-09T04:03:20.372Z,11.61
2022-11-09T04:08:24.726Z,11.66
2022-11-09T04:20:10.821Z,11.67
2022-11-09T04:25:15.005Z,11.69
2022-11-09T04:30:17.851Z,11.66
2022-11-09T04:35:20.669Z,11.65
2022-11-09T04:40:26.343Z,11.62
2022-11-09T04:45:29.283Z,11.60
2022-11-09T04:50:32.569Z,11.61
2022-11-09T04:55:37.017Z,11.61
2022-11-09T05:00:40.870Z,11.62
2022-11-09T05:05:48.115Z,11.60
2022-11-09T05:10:52.849Z,11.58
2022-11-09T05:15:55.638Z,11.56
2022-11-09T05:20:59.805Z,11.57
2022-11-09T05:26:03.926Z,11.60
2022-11-09T05:31:07.243Z,11.60
2022-11-09T05:36:10.282Z,11.57
2022-11-09T05:41:15.102Z,11.54
2022-11-09T05:46:18.964Z,11.54
2022-11-09T05:51:21.694Z,11.54
2022-11-09T05:56:25.938Z,11.60
2022-11-09T06:01:28.669Z,11.59
2022-11-09T06:06:31.477Z,11.70
2022-11-09T06:11:35.604Z,11.70
2022-11-09T06:16:38.438Z,11.74
2022-11-09T06:21:41.437Z,11.81
2022-11-09T06:26:45.618Z,11.87
2022-11-09T06:31:48.977Z,11.93
2022-11-09T06:36:51.835Z,11.99
2022-11-09T06:41:55.964Z,12.00
2022-11-09T06:46:58.832Z,12.05
2022-11-09T06:52:01.638Z,12.09
2022-11-09T06:57:05.856Z,12.08
2022-11-09T07:02:09.977Z,12.12
2022-11-09T07:07:13.013Z,12.16
2022-11-09T07:12:17.525Z,12.18
2022-11-09T07:17:20.722Z,12.21
2022-11-09T07:22:23.621Z,12.24
2022-11-09T07:27:28.531Z,12.29
2022-11-09T07:33:07.526Z,12.33
2022-11-09T07:38:01.286Z,12.33
2022-11-09T07:43:06.114Z,12.33
2022-11-09T07:48:11.247Z,12.44
2022-11-09T07:53:16.108Z,12.48
2022-11-09T07:58:20.363Z,12.62
2022-11-09T08:03:25.784Z,12.78
2022-11-09T08:08:28.609Z,12.95
2022-11-09T08:13:32.726Z,13.17
2022-11-09T08:18:35.683Z,13.26
2022-11-09T08:23:38.496Z,13.31
2022-11-09T08:28:42.690Z,13.91
2022-11-09T08:33:45.527Z,14.20
2022-11-09T08:38:51.046Z,14.52
2022-11-09T08:43:55.226Z,14.63
2022-11-09T08:48:58.010Z,14.43
2022-11-09T08:54:00.797Z,14.36
2022-11-09T08:59:05.008Z,14.54
2022-11-09T09:04:07.785Z,14.37
2022-11-09T09:09:10.683Z,14.57
2022-11-09T09:14:15.689Z,14.71
2022-11-09T09:19:19.222Z,14.87
2022-11-09T09:24:22.305Z,14.87
2022-11-09T09:29:26.487Z,15.06
2022-11-09T09:34:29.315Z,15.01
2022-11-09T09:39:32.182Z,15.34
2022-11-09T09:44:42.452Z,15.34
2022-11-09T09:49:49.027Z,15.52
2022-11-09T09:54:59.212Z,15.86
2022-11-09T10:00:08.234Z,15.68
2022-11-09T10:05:17.199Z,15.76
2022-11-09T10:10:44.399Z,15.56
2022-11-09T10:15:53.778Z,15.59
2022-11-09T10:21:10.941Z,15.84
2022-11-09T10:26:19.982Z,16.11
2022-11-09T10:31:24.928Z,16.19
2022-11-09T10:36:34.493Z,15.84
2022-11-09T10:41:41.554Z,15.54
2022-11-09T10:47:08.044Z,15.36
2022-11-09T10:52:44.198Z,16.05
2022-11-09T10:58:24.224Z,15.55
2022-11-09T11:03:51.532Z,15.20
2022-11-09T11:09:17.715Z,15.17
2022-11-09T11:14:44.579Z,14.96
2022-11-09T11:20:29.193Z,14.81
2022-11-09T11:26:04.546Z,14.79
2022-11-09T11:31:26.058Z,14.54
2022-11-09T11:37:00.190Z,14.15
2022-11-09T11:42:46.448Z,13.74
2022-11-09T11:48:46.953Z,13.76
2022-11-09T11:54:20.929Z,14.07
2022-11-09T12:00:04.985Z,14.32
2022-11-09T12:05:46.488Z,14.42
2022-11-09T12:11:16.809Z,14.51
2022-11-09T12:16:47.326Z,14.34
2022-11-09T12:22:17.971Z,14.44
2022-11-09T12:27:55.965Z,14.54
2022-11-09T12:33:23.050Z,14.54
2022-11-09T12:38:53.557Z,14.58
2022-11-09T12:44:21.094Z,14.55
2022-11-09T12:49:44.264Z,14.45
2022-11-09T12:55:06.486Z,14.43
2022-11-09T13:00:50.995Z,14.48
2022-11-09T13:06:18.495Z,14.29
2022-11-09T13:11:43.093Z,14.43
2022-11-09T13:17:52.978Z,14.32
2022-11-09T13:29:26.375Z,14.21
2022-11-09T13:34:51.965Z,14.10
2022-11-09T13:40:42.375Z,14.04
2022-11-09T13:46:05.936Z,13.93
2022-11-09T13:51:46.037Z,13.93
2022-11-09T13:57:08.542Z,13.80
2022-11-09T14:02:29.953Z,13.79
2022-11-09T14:07:54.625Z,13.66
2022-11-09T14:13:30.838Z,13.65
2022-11-09T14:19:04.832Z,13.69
2022-11-09T14:24:30.810Z,13.60
2022-11-09T14:29:55.151Z,13.65
2022-11-09T14:35:25.120Z,13.60
2022-11-09T14:40:49.896Z,13.58
2022-11-09T14:46:17.502Z,13.52
2022-11-09T14:51:40.815Z,13.43
2022-11-09T14:57:03.990Z,13.46
2022-11-09T15:02:26.943Z,13.33
2022-11-09T15:07:48.978Z,13.32
2022-11-09T15:13:11.887Z,13.25
2022-11-09T15:18:36.736Z,13.13
2022-11-09T15:24:06.377Z,13.06
2022-11-09T15:29:36.254Z,12.92
2022-11-09T15:35:00.188Z,12.81
2022-11-09T15:40:24.332Z,12.78
2022-11-09T15:45:47.091Z,12.72
2022-11-09T15:51:08.406Z,12.65
2022-11-09T15:56:30.045Z,12.63
2022-11-09T16:01:53.263Z,12.56
2022-11-09T16:07:16.677Z,12.50
2022-11-09T16:12:42.509Z,12.37
2022-11-09T16:18:09.053Z,12.28
2022-11-09T16:23:30.943Z,12.20
2022-11-09T16:28:52.447Z,12.16
2022-11-09T16:34:16.041Z,12.13
2022-11-09T16:39:37.928Z,12.06
2022-11-09T16:45:06.270Z,11.99
2022-11-09T16:50:29.515Z,11.89
2022-11-09T16:55:51.029Z,11.81
2022-11-09T17:01:13.958Z,11.72
2022-11-09T17:06:39.308Z,11.69
2022-11-09T17:12:01.050Z,11.67
2022-11-09T17:17:23.082Z,11.67
2022-11-09T17:22:46.486Z,11.63
2022-11-09T17:28:08.694Z,11.60
2022-11-09T17:33:30.057Z,11.60
2022-11-09T17:38:53.930Z,11.56
2022-11-09T17:44:17.064Z,11.49
2022-11-09T17:49:38.626Z,11.49
2022-11-09T17:55:01.747Z,11.42
2022-11-09T18:00:23.423Z,11.36
2022-11-09T18:05:45.890Z,11.24
2022-11-09T18:11:08.989Z,11.13
2022-11-09T18:16:30.584Z,11.08
2022-11-09T18:21:52.179Z,11.02
2022-11-09T18:27:15.129Z,10.93
2022-11-09T18:32:36.340Z,10.82
2022-11-09T18:37:57.854Z,10.77
2022-11-09T18:43:20.476Z,10.71
2022-11-09T18:48:41.921Z,10.67
2022-11-09T18:54:03.620Z,10.65
2022-11-09T18:59:26.530Z,10.66
2022-11-09T19:04:48.327Z,10.69
2022-11-09T19:10:10.508Z,10.73
2022-11-09T19:15:35.032Z,10.73
2022-11-09T19:20:56.849Z,10.81
2022-11-09T19:26:18.587Z,10.75
2022-11-09T19:31:43.206Z,10.77
2022-11-09T19:37:04.523Z,10.77
2022-11-09T19:42:26.138Z,10.78
2022-11-09T19:47:50.813Z,10.71
2022-11-09T19:53:12.357Z,10.71
2022-11-09T19:58:33.629Z,10.71
2022-11-09T20:03:58.497Z,10.69
2022-11-09T20:09:19.769Z,10.65
2022-11-09T20:14:41.096Z,10.61
2022-11-09T20:20:04.233Z,10.61
2022-11-09T20:25:25.772Z,10.56
2022-11-09T20:30:47.509Z,10.50
2022-11-09T20:36:10.613Z,10.47
2022-11-09T20:41:32.794Z,10.41
2022-11-09T20:46:54.569Z,10.36
2022-11-09T20:52:17.332Z,10.31
2022-11-09T20:57:38.690Z,10.25
2022-11-09T21:03:00.453Z,10.17
2022-11-09T21:08:23.462Z,10.12
2022-11-09T21:13:46.058Z,10.08
2022-11-09T21:19:07.683Z,10.07
2022-11-09T21:24:48.036Z,10.11
2022-11-09T21:30:10.629Z,10.13
2022-11-09T21:35:32.259Z,10.15
2022-11-09T21:40:54.966Z,10.17
2022-11-09T21:46:16.457Z,10.19
2022-11-09T21:51:39.645Z,10.23
2022-11-09T21:57:02.490Z,10.22
2022-11-09T22:02:23.818Z,10.26
2022-11-09T22:07:45.231Z,10.31
2022-11-09T22:13:28.299Z,10.27
2022-11-09T22:19:07.886Z,10.23
2022-11-09T22:24:29.400Z,10.22
2022-11-09T22:29:52.426Z,10.20
2022-11-09T22:35:13.832Z,10.10
2022-11-09T22:40:36.028Z,10.00
2022-11-09T22:46:03.934Z,9.95
2022-11-09T22:51:25.261Z,9.84
2022-11-09T22:56:46.769Z,9.76
2022-11-09T23:02:09.533Z,9.72
2022-11-09T23:07:31.002Z,9.64
2022-11-09T23:12:52.548Z,9.63
2022-11-09T23:18:32.737Z,9.63
2022-11-09T23:23:56.483Z,9.65
2022-11-09T23:29:18.234Z,9.68
2022-11-09T23:34:40.940Z,9.71
2022-11-09T23:40:02.724Z,9.76
2022-11-09T23:45:23.963Z,9.78
2022-11-09T23:50:48.059Z,9.81
2022-11-09T23:56:11.462Z,9.81
